Preston, ID

10:33 AM MDT on July 29, 2016 (GMT -0600)
Preston, ID Airport (U10) - Dyacon.com Demo | | Change Station
Active Advisory: Fire Weather Watch

Elev 4726 ft 42.11 °N, 111.91 °W | Updated 3 minutes ago

Clear
Clear
78.8 °F
Feels Like 78 °F
N
2.0
Wind Variable Wind from SW

Today
High -- | Low -- °F
--% Chance of Precip.
Yesterday
High -- | Low -- °F
Precip. -- in
Pressure 29.94 in
Visibility 10.0 miles
Clouds Clear
Heat Index 78 °F
Dew Point 40 °F
Humidity 25%
Rainfall 0.00 in
Snow Depth Not available.
6:17 AM 8:48 PM
Waning Crescent, 21% visible
METAR KLGU 291551Z AUTO 00000KT 10SM CLR 23/07 A3010 RMK AO2 SLP137 T02330067
Pressure 29.94 in
Visibility 10.0 miles
Clouds Clear
Heat Index 78 °F
Dew Point 40 °F
Humidity 25%
Rainfall 0.00 in
Snow Depth Not available.
6:17 AM 8:48 PM
Waning Crescent, 21% visible
METAR KLGU 291551Z AUTO 00000KT 10SM CLR 23/07 A3010 RMK AO2 SLP137 T02330067

10-Day Weather Forecast

Almanac

Astronomy

Jul. 29, 2016 Rise Set
Actual Time
Civil Twilight
Nautical Twilight
Astronomical Twilight
Moon
Length of Visible Light
Length of Day
Tomorrow will be .
, % of the Moon is Illuminated

Today's Extremes

State Highs State Lows

Community

WunderPhotos

Upload Photos

1,928,367 photos uploaded!

WunderBlog® & News

Nearby

Air Quality

  Air Quality AQ Index Pollutant
Not available.

Snow Depth

Station Depth Elevation

Earthquake Activity

City Distance Mag. Time & Date
Minimum magnitude displayed is 2.5.

Coastal Water Temperatures

Place Temperature

Stations

Nearby Weather Stations

Station Location Temp. Windchill Dew Point Humidity Wind Precip. Elev Updated Type
                   

Watches & Warnings

Fire Weather Watch
Issued: 9:27 AM MDT Jul. 29, 2016 – National Weather Service

... Fire Weather Watch in effect from noon Saturday afternoon
until 11 PM MDT Saturday evening for thunderstorms for fire
weather zone 413...

The National Weather Service in Pocatello has issued a Fire
Weather Watch... which is in effect from noon Saturday afternoon
until 11 PM MDT Saturday evening.

* Affected area... fire weather zone 413.

* Thunderstorms... scattered dry thunderstorms are expected to
develop during the afternoon and evening.

* Impacts... any fires that develop will likely spread rapidly.
Outdoor burning is not recommended.

Precautionary/preparedness actions...

A Fire Weather Watch means that critical fire weather conditions
are forecast to occur. Listen for later forecasts and possible
red flag warnings.